createdAt,value
2023-04-22T00:00:55.319Z,1.16
2023-04-22T00:01:55.342Z,1.35
2023-04-22T00:02:55.525Z,1.19
2023-04-22T00:03:55.558Z,1.21
2023-04-22T00:04:55.588Z,1.12
2023-04-22T00:05:55.523Z,1.18
2023-04-22T00:06:55.487Z,1.08
2023-04-22T00:07:55.507Z,0.94
2023-04-22T00:08:55.524Z,1.43
2023-04-22T00:09:55.558Z,1.16
2023-04-22T00:10:55.578Z,1.20
2023-04-22T00:11:55.588Z,1.45
2023-04-22T00:12:55.660Z,1.25
2023-04-22T00:13:55.638Z,0.94
2023-04-22T00:14:55.699Z,1.27
2023-04-22T00:15:55.704Z,1.65
2023-04-22T00:16:55.723Z,1.62
2023-04-22T00:17:55.754Z,1.63
2023-04-22T00:18:55.723Z,1.42
2023-04-22T00:19:55.748Z,1.51
2023-04-22T00:20:55.784Z,1.30
2023-04-22T00:21:55.788Z,1.39
2023-04-22T00:22:55.787Z,1.44
2023-04-22T00:23:55.774Z,1.46
2023-04-22T00:24:55.818Z,1.31
2023-04-22T00:25:55.818Z,1.33
2023-04-22T00:26:55.880Z,1.24
2023-04-22T00:27:55.847Z,1.52
2023-04-22T00:28:55.893Z,1.15
2023-04-22T00:29:55.881Z,1.39
2023-04-22T00:30:55.911Z,1.35
2023-04-22T00:31:55.906Z,1.56
2023-04-22T00:32:55.921Z,1.54
2023-04-22T00:33:55.933Z,1.20
2023-04-22T00:34:55.961Z,1.49
2023-04-22T00:35:55.955Z,1.64
2023-04-22T00:36:55.970Z,1.37
2023-04-22T00:37:56.005Z,1.57
2023-04-22T00:38:56.011Z,1.24
2023-04-22T00:39:56.041Z,1.37
2023-04-22T00:40:56.043Z,1.38
2023-04-22T00:41:56.062Z,1.67
2023-04-22T00:42:56.083Z,1.51
2023-04-22T00:43:56.068Z,1.47
2023-04-22T00:44:56.116Z,1.30
2023-04-22T00:45:56.159Z,1.14
2023-04-22T00:46:56.207Z,1.33
2023-04-22T00:47:56.195Z,1.49
2023-04-22T00:48:56.234Z,1.84
2023-04-22T00:49:56.162Z,1.30
2023-04-22T00:50:56.195Z,1.49
2023-04-22T00:51:56.185Z,1.27
2023-04-22T00:52:56.224Z,1.18
2023-04-22T00:53:56.236Z,1.35
2023-04-22T00:54:56.265Z,1.30
2023-04-22T00:55:56.273Z,1.22
2023-04-22T00:56:56.338Z,1.58
2023-04-22T00:57:56.302Z,1.46
2023-04-22T00:58:56.314Z,1.44
2023-04-22T00:59:56.341Z,1.40
2023-04-22T01:00:56.473Z,1.29
2023-04-22T01:01:56.427Z,1.59
2023-04-22T01:02:56.476Z,1.40
2023-04-22T01:03:56.607Z,1.20
2023-04-22T01:04:56.409Z,1.33
2023-04-22T01:05:56.442Z,1.10
2023-04-22T01:06:56.513Z,1.44
2023-04-22T01:07:56.538Z,1.40
2023-04-22T01:08:56.558Z,1.38
2023-04-22T01:09:56.573Z,1.63
2023-04-22T01:10:56.596Z,0.91
2023-04-22T01:11:56.665Z,1.26
2023-04-22T01:12:56.652Z,1.42
2023-04-22T01:13:56.664Z,1.18
2023-04-22T01:14:56.718Z,1.30
2023-04-22T01:15:56.726Z,1.53
2023-04-22T01:16:56.800Z,1.37
2023-04-22T01:17:56.915Z,1.25
2023-04-22T01:18:56.845Z,1.52
2023-04-22T01:19:56.863Z,1.28
2023-04-22T01:20:56.866Z,1.68
2023-04-22T01:21:56.930Z,1.07
2023-04-22T01:22:56.927Z,1.26
2023-04-22T01:23:56.962Z,1.45
2023-04-22T01:24:57.002Z,1.12
2023-04-22T01:25:57.065Z,1.32
2023-04-22T01:26:57.062Z,1.32
2023-04-22T01:27:57.080Z,1.28
2023-04-22T01:28:57.116Z,1.34
2023-04-22T01:29:57.138Z,1.33
2023-04-22T01:30:57.193Z,1.60
2023-04-22T01:31:57.294Z,1.54
2023-04-22T01:32:57.271Z,1.48
2023-04-22T01:33:57.214Z,1.53
2023-04-22T01:34:57.245Z,1.29
2023-04-22T01:35:57.256Z,1.41
2023-04-22T01:36:57.275Z,1.11
2023-04-22T01:37:57.294Z,1.26
2023-04-22T01:38:57.341Z,1.17
2023-04-22T01:39:57.351Z,1.56
2023-04-22T01:40:57.391Z,1.40
2023-04-22T01:41:57.444Z,1.26
2023-04-22T01:42:57.488Z,1.48
2023-04-22T01:43:57.486Z,1.27
2023-04-22T01:44:57.510Z,1.33
2023-04-22T01:45:57.590Z,1.41
2023-04-22T01:46:57.615Z,1.40
2023-04-22T01:47:57.638Z,1.62
2023-04-22T01:48:57.666Z,1.34
2023-04-22T01:49:57.677Z,1.77
2023-04-22T01:50:57.672Z,1.58
2023-04-22T01:51:57.685Z,1.54
2023-04-22T01:52:57.677Z,1.33
2023-04-22T01:53:57.682Z,1.88
2023-04-22T01:54:57.701Z,1.41
2023-04-22T01:55:57.717Z,1.67
2023-04-22T01:56:57.719Z,1.63
2023-04-22T01:57:57.751Z,1.69
2023-04-22T01:58:57.720Z,1.66
2023-04-22T01:59:57.760Z,1.70
2023-04-22T02:00:57.831Z,2.04
2023-04-22T02:01:57.886Z,1.77
2023-04-22T02:02:57.880Z,1.44
2023-04-22T02:03:57.781Z,1.82
2023-04-22T02:04:57.882Z,1.45
2023-04-22T02:05:57.781Z,1.55
2023-04-22T02:06:57.785Z,1.95
2023-04-22T02:07:57.786Z,1.59
2023-04-22T02:08:57.797Z,1.60
2023-04-22T02:09:57.810Z,1.46
2023-04-22T02:10:57.805Z,1.40
2023-04-22T02:11:57.840Z,1.54
2023-04-22T02:12:57.825Z,1.34
2023-04-22T02:13:57.797Z,1.61
2023-04-22T02:14:57.819Z,1.66
2023-04-22T02:15:57.934Z,1.43
2023-04-22T02:16:57.826Z,1.55
2023-04-22T02:17:57.894Z,1.63
2023-04-22T02:18:57.864Z,1.71
2023-04-22T02:19:57.977Z,1.45
2023-04-22T02:20:57.915Z,1.30
2023-04-22T02:21:57.914Z,1.54
2023-04-22T02:22:57.984Z,2.08
2023-04-22T02:23:57.991Z,1.43
2023-04-22T02:24:58.003Z,1.63
2023-04-22T02:25:58.051Z,1.54
2023-04-22T02:26:58.070Z,1.75
2023-04-22T02:27:58.100Z,1.53
2023-04-22T02:28:58.099Z,1.30
2023-04-22T02:29:58.107Z,1.62
2023-04-22T02:30:58.216Z,1.46
2023-04-22T02:31:58.263Z,1.44
2023-04-22T02:32:58.274Z,1.39
2023-04-22T02:33:58.272Z,1.57
2023-04-22T02:34:58.257Z,1.67
2023-04-22T02:35:58.304Z,1.65
2023-04-22T02:36:58.322Z,1.66
2023-04-22T02:37:58.404Z,1.43
2023-04-22T02:38:58.439Z,1.99
2023-04-22T02:39:58.448Z,1.55
2023-04-22T02:40:58.444Z,1.88
2023-04-22T02:41:58.458Z,1.82
2023-04-22T02:42:58.436Z,1.84
2023-04-22T02:43:58.457Z,1.61
2023-04-22T02:44:58.438Z,1.81
2023-04-22T02:45:58.480Z,1.38
2023-04-22T02:46:58.605Z,1.80
2023-04-22T02:47:58.459Z,1.43
2023-04-22T02:48:58.400Z,1.45
2023-04-22T02:49:58.432Z,1.75
2023-04-22T02:50:58.463Z,1.93
2023-04-22T02:51:58.488Z,1.39
2023-04-22T02:52:58.501Z,1.74
2023-04-22T02:53:58.502Z,1.86
2023-04-22T02:54:58.514Z,1.90
2023-04-22T02:55:58.518Z,1.65
2023-04-22T02:56:58.517Z,1.83
2023-04-22T02:57:58.541Z,1.86
2023-04-22T02:58:58.567Z,1.52
2023-04-22T02:59:58.540Z,1.71
2023-04-22T03:00:58.629Z,1.70
2023-04-22T03:01:58.627Z,1.93
2023-04-22T03:02:58.706Z,1.89
2023-04-22T03:03:58.870Z,1.75
2023-04-22T03:04:58.620Z,1.71
2023-04-22T03:05:58.625Z,2.00
2023-04-22T03:06:58.650Z,1.79
2023-04-22T03:07:58.626Z,1.76
2023-04-22T03:08:58.644Z,1.53
2023-04-22T03:09:58.647Z,2.32
2023-04-22T03:10:58.688Z,1.72
2023-04-22T03:11:58.644Z,1.82
2023-04-22T03:12:58.694Z,1.86
2023-04-22T03:13:58.671Z,1.86
2023-04-22T03:14:58.680Z,1.81
2023-04-22T03:15:58.699Z,2.03
2023-04-22T03:16:58.781Z,1.76
2023-04-22T03:17:58.800Z,1.73
2023-04-22T03:18:58.791Z,1.95
2023-04-22T03:19:58.793Z,1.41
2023-04-22T03:20:58.793Z,1.68
2023-04-22T03:21:58.802Z,1.44
2023-04-22T03:22:58.818Z,1.84
2023-04-22T03:23:58.804Z,2.09
2023-04-22T03:24:58.848Z,1.83
2023-04-22T03:25:58.815Z,1.56
2023-04-22T03:26:58.864Z,1.76
2023-04-22T03:27:58.880Z,1.54
2023-04-22T03:28:58.923Z,1.97
2023-04-22T03:29:58.940Z,1.42
2023-04-22T03:30:58.993Z,1.83
2023-04-22T03:31:59.095Z,1.89
2023-04-22T03:32:59.088Z,2.08
2023-04-22T03:33:59.047Z,1.90
2023-04-22T03:34:59.092Z,1.61
2023-04-22T03:35:59.139Z,2.01
2023-04-22T03:36:59.106Z,1.93
2023-04-22T03:37:59.074Z,1.99
2023-04-22T03:38:59.081Z,2.16
2023-04-22T03:39:59.090Z,1.68
2023-04-22T03:40:59.088Z,1.95
2023-04-22T03:41:59.517Z,1.74
2023-04-22T03:42:59.122Z,1.89
2023-04-22T03:44:01.637Z,1.99
2023-04-22T03:44:59.090Z,1.94
2023-04-22T03:45:59.079Z,1.85
2023-04-22T03:46:59.057Z,2.11
2023-04-22T03:47:59.093Z,2.25
2023-04-22T03:48:59.056Z,1.62
2023-04-22T03:49:59.056Z,1.74
2023-04-22T03:50:59.035Z,2.03
2023-04-22T03:51:59.050Z,2.12
2023-04-22T03:52:59.051Z,1.78
2023-04-22T03:53:59.034Z,1.67
2023-04-22T03:54:59.026Z,1.57
2023-04-22T03:55:59.035Z,2.04
2023-04-22T03:56:59.033Z,2.03
2023-04-22T03:57:59.013Z,1.75
2023-04-22T03:58:58.979Z,1.54
2023-04-22T03:59:58.992Z,1.93
2023-04-22T04:00:58.976Z,1.84
2023-04-22T04:01:59.011Z,1.82
2023-04-22T04:02:59.065Z,2.10
2023-04-22T04:03:59.071Z,1.83
2023-04-22T04:04:59.396Z,2.01
2023-04-22T04:05:58.984Z,1.71
2023-04-22T04:06:58.909Z,2.09
2023-04-22T04:07:58.923Z,1.62
2023-04-22T04:08:58.866Z,1.74
2023-04-22T04:09:58.847Z,1.87
2023-04-22T04:10:58.840Z,1.78
2023-04-22T04:11:58.850Z,1.76
2023-04-22T04:12:58.825Z,2.24
2023-04-22T04:13:58.799Z,2.02
2023-04-22T04:14:58.826Z,1.69
2023-04-22T04:15:58.840Z,1.80
2023-04-22T04:16:58.817Z,1.72
2023-04-22T04:17:58.826Z,1.69
2023-04-22T04:18:58.797Z,1.79
2023-04-22T04:19:58.770Z,1.69
2023-04-22T04:20:58.751Z,1.80
2023-04-22T04:21:58.769Z,1.72
2023-04-22T04:22:58.741Z,1.60
2023-04-22T04:23:58.734Z,1.50
2023-04-22T04:24:58.723Z,2.03
2023-04-22T04:25:58.694Z,1.78
2023-04-22T04:26:58.703Z,1.91
2023-04-22T04:27:58.626Z,1.77
2023-04-22T04:28:58.608Z,1.92
2023-04-22T04:29:58.615Z,1.84
2023-04-22T04:30:58.594Z,2.00
2023-04-22T04:31:58.603Z,1.75
2023-04-22T04:32:58.579Z,1.66
2023-04-22T04:33:58.537Z,1.92
2023-04-22T04:34:58.538Z,1.54
2023-04-22T04:35:58.516Z,1.44
2023-04-22T04:36:58.606Z,1.46
2023-04-22T04:37:58.503Z,1.74
2023-04-22T04:38:58.461Z,1.83
2023-04-22T04:39:58.449Z,1.63
2023-04-22T04:40:58.455Z,1.73
2023-04-22T04:41:58.446Z,1.80
2023-04-22T04:42:58.411Z,1.69
2023-04-22T04:43:58.370Z,1.66
2023-04-22T04:44:58.346Z,1.91
2023-04-22T04:45:58.312Z,1.43
2023-04-22T04:46:58.380Z,1.71
2023-04-22T04:47:58.358Z,2.02
2023-04-22T04:48:58.276Z,1.36
2023-04-22T04:49:58.220Z,1.80
2023-04-22T04:50:58.206Z,1.71
2023-04-22T04:51:58.223Z,1.83
2023-04-22T04:52:58.153Z,1.90
2023-04-22T04:53:58.181Z,1.94
2023-04-22T04:54:58.174Z,1.55
2023-04-22T04:55:58.129Z,1.93
2023-04-22T04:56:58.122Z,1.97
2023-04-22T04:57:58.125Z,1.77
2023-04-22T04:58:58.104Z,1.97
2023-04-22T04:59:58.114Z,1.84
2023-04-22T05:00:58.091Z,1.91
2023-04-22T05:01:58.154Z,1.59
2023-04-22T05:02:58.220Z,1.80
2023-04-22T05:03:58.246Z,1.56
2023-04-22T05:04:58.111Z,2.13
2023-04-22T05:05:58.121Z,1.45
2023-04-22T05:06:58.119Z,1.81
2023-04-22T05:07:58.149Z,1.83
2023-04-22T05:08:58.193Z,1.90
2023-04-22T05:09:58.219Z,1.78
2023-04-22T05:10:58.201Z,1.43
2023-04-22T05:11:58.218Z,2.24
2023-04-22T05:12:58.244Z,1.84
2023-04-22T05:13:58.240Z,1.80
2023-04-22T05:14:58.262Z,2.02
2023-04-22T05:15:58.297Z,2.08
2023-04-22T05:16:58.417Z,2.03
2023-04-22T05:17:58.372Z,1.96
2023-04-22T05:18:58.300Z,1.81
2023-04-22T05:19:58.313Z,1.93
2023-04-22T05:20:58.284Z,1.89
2023-04-22T05:21:58.299Z,1.76
2023-04-22T05:22:58.315Z,1.89
2023-04-22T05:23:58.300Z,1.82
2023-04-22T05:24:58.305Z,1.78
2023-04-22T05:25:58.326Z,1.83
2023-04-22T05:26:58.321Z,1.56
2023-04-22T05:27:58.333Z,1.94
2023-04-22T05:28:58.308Z,1.76
2023-04-22T05:29:58.351Z,1.85
2023-04-22T05:30:58.366Z,1.66
2023-04-22T05:31:58.383Z,1.62
2023-04-22T05:32:58.432Z,2.00
2023-04-22T05:33:58.389Z,2.14
2023-04-22T05:34:58.372Z,2.43
2023-04-22T05:35:58.414Z,2.33
2023-04-22T05:36:58.398Z,1.63
2023-04-22T05:37:58.435Z,1.95
2023-04-22T05:38:58.438Z,1.52
2023-04-22T05:39:58.468Z,1.93
2023-04-22T05:40:58.554Z,1.88
2023-04-22T05:41:58.512Z,1.94
2023-04-22T05:42:58.554Z,1.62
2023-04-22T05:43:58.580Z,1.79
2023-04-22T05:44:58.614Z,2.03
2023-04-22T05:45:58.708Z,1.90
2023-04-22T05:46:58.657Z,1.46
2023-04-22T05:47:58.726Z,1.74
2023-04-22T05:48:58.738Z,1.77
2023-04-22T05:49:58.793Z,1.71
2023-04-22T05:50:58.826Z,1.76
2023-04-22T05:51:58.832Z,1.42
2023-04-22T05:52:58.865Z,1.73
2023-04-22T05:53:58.858Z,1.70
2023-04-22T05:54:58.878Z,1.60
2023-04-22T05:55:58.884Z,1.38
2023-04-22T05:56:58.937Z,1.64
2023-04-22T05:57:58.953Z,1.49
2023-04-22T05:58:58.959Z,1.39
2023-04-22T05:59:58.989Z,1.50
2023-04-22T06:00:58.981Z,1.56
2023-04-22T06:01:59.038Z,1.71
2023-04-22T06:02:59.133Z,1.47
2023-04-22T06:03:59.197Z,1.49
2023-04-22T06:04:59.297Z,1.67
2023-04-22T06:05:59.111Z,1.67
2023-04-22T06:06:59.066Z,1.77
2023-04-22T06:07:59.072Z,1.37
2023-04-22T06:08:59.066Z,1.44
2023-04-22T06:10:04.490Z,1.63
2023-04-22T06:11:00.082Z,1.53
2023-04-22T06:11:59.065Z,1.58
2023-04-22T06:12:59.016Z,1.81
2023-04-22T06:13:59.006Z,1.69
2023-04-22T06:14:58.995Z,1.52
2023-04-22T06:15:59.002Z,1.48
2023-04-22T06:16:58.985Z,1.51
2023-04-22T06:17:58.979Z,1.69
2023-04-22T06:18:58.957Z,1.82
2023-04-22T06:19:58.938Z,1.47
2023-04-22T06:20:58.957Z,1.68
2023-04-22T06:21:58.953Z,1.92
2023-04-22T06:22:58.924Z,1.93
2023-04-22T06:23:58.908Z,1.81
2023-04-22T06:24:58.925Z,1.89
2023-04-22T06:25:58.910Z,1.90
2023-04-22T06:26:58.886Z,1.82
2023-04-22T06:27:58.873Z,1.66
2023-04-22T06:28:58.908Z,1.74
2023-04-22T06:29:58.909Z,1.88
2023-04-22T06:30:58.952Z,1.95
2023-04-22T06:31:58.942Z,1.67
2023-04-22T06:32:59.016Z,1.58
2023-04-22T06:33:59.035Z,1.62
2023-04-22T06:34:59.009Z,2.26
2023-04-22T06:35:59.065Z,2.03
2023-04-22T06:36:59.062Z,2.02
2023-04-22T06:37:59.086Z,2.10
2023-04-22T06:38:59.138Z,1.50
2023-04-22T06:39:59.134Z,1.97
2023-04-22T06:40:59.124Z,1.68
2023-04-22T06:41:59.201Z,1.73
2023-04-22T06:42:59.147Z,1.85
2023-04-22T06:43:59.228Z,1.86
2023-04-22T06:44:59.184Z,1.87
2023-04-22T06:45:59.202Z,2.05
2023-04-22T06:46:59.267Z,1.70
2023-04-22T06:47:59.341Z,1.84
2023-04-22T06:48:59.303Z,1.75
2023-04-22T06:49:59.332Z,1.54
2023-04-22T06:50:59.328Z,1.76
2023-04-22T06:51:59.291Z,1.80
2023-04-22T06:52:59.326Z,1.56
2023-04-22T06:53:59.361Z,1.68
2023-04-22T06:54:59.414Z,1.77
2023-04-22T06:55:59.435Z,2.04
2023-04-22T06:56:59.464Z,1.60
2023-04-22T06:57:59.451Z,1.74
2023-04-22T06:58:59.506Z,2.12
2023-04-22T06:59:59.564Z,2.07
2023-04-22T07:00:59.551Z,1.75
2023-04-22T07:01:59.642Z,1.57
2023-04-22T07:02:59.662Z,1.71
2023-04-22T07:03:59.682Z,2.16
2023-04-22T07:04:59.707Z,1.77
2023-04-22T07:05:59.763Z,1.68
2023-04-22T07:06:59.773Z,1.62
2023-04-22T07:07:59.784Z,1.72
2023-04-22T07:08:59.850Z,1.63
2023-04-22T07:09:59.868Z,1.82
2023-04-22T07:10:59.861Z,2.02
2023-04-22T07:11:59.918Z,2.09
2023-04-22T07:12:59.952Z,1.66
2023-04-22T07:13:59.962Z,1.82
2023-04-22T07:14:59.993Z,2.25
2023-04-22T07:16:00.048Z,1.91
2023-04-22T07:17:00.062Z,2.13
2023-04-22T07:18:00.181Z,1.65
2023-04-22T07:19:00.133Z,1.66
2023-04-22T07:20:00.163Z,1.68
2023-04-22T07:21:00.203Z,1.60
2023-04-22T07:22:00.248Z,1.73
2023-04-22T07:23:00.251Z,1.55
2023-04-22T07:24:00.309Z,1.95
2023-04-22T07:25:00.328Z,1.80
2023-04-22T07:26:00.369Z,1.64
2023-04-22T07:27:00.385Z,1.75
2023-04-22T07:28:00.406Z,1.91
2023-04-22T07:29:00.435Z,1.70
2023-04-22T07:30:00.477Z,1.79
2023-04-22T07:31:00.563Z,1.82
2023-04-22T07:32:00.587Z,1.88
2023-04-22T07:33:00.626Z,1.94
2023-04-22T07:34:00.581Z,1.67
2023-04-22T07:35:00.645Z,1.62
2023-04-22T07:36:00.667Z,1.71
2023-04-22T07:37:00.709Z,1.58
2023-04-22T07:38:00.770Z,1.41
2023-04-22T07:39:00.732Z,1.78
2023-04-22T07:40:00.783Z,1.87
2023-04-22T07:41:00.799Z,1.99
2023-04-22T07:42:00.912Z,1.91
2023-04-22T07:43:00.906Z,1.52
2023-04-22T07:44:00.929Z,1.88
2023-04-22T07:45:00.952Z,1.91
2023-04-22T07:46:01.001Z,1.76
2023-04-22T07:47:01.005Z,1.93
2023-04-22T07:48:01.116Z,1.76
2023-04-22T07:49:01.061Z,1.83
2023-04-22T07:50:01.134Z,1.89
2023-04-22T07:51:01.137Z,1.41
2023-04-22T07:52:01.160Z,1.64
2023-04-22T07:53:01.203Z,1.53
2023-04-22T07:54:01.266Z,2.03
2023-04-22T07:55:01.289Z,1.42
2023-04-22T07:56:02.232Z,2.00
2023-04-22T07:57:01.353Z,1.68
2023-04-22T07:58:01.420Z,1.56
2023-04-22T07:59:01.424Z,1.63
2023-04-22T08:00:01.461Z,1.66
2023-04-22T08:01:01.529Z,1.62
2023-04-22T08:02:01.570Z,1.68
2023-04-22T08:03:01.631Z,1.85
2023-04-22T08:04:01.922Z,1.57
2023-04-22T08:05:01.688Z,1.65
2023-04-22T08:06:01.620Z,1.69
2023-04-22T08:07:03.582Z,1.45
2023-04-22T08:08:02.637Z,1.94
2023-04-22T08:09:01.649Z,1.66
2023-04-22T08:10:01.609Z,1.40
2023-04-22T08:11:01.666Z,1.93
2023-04-22T08:12:01.642Z,1.45
2023-04-22T08:13:01.664Z,1.56
2023-04-22T08:14:01.626Z,1.95
2023-04-22T08:15:01.650Z,1.64
2023-04-22T08:16:01.607Z,1.82
2023-04-22T08:17:01.585Z,1.46
2023-04-22T08:18:01.632Z,1.77
2023-04-22T08:19:01.534Z,1.48
2023-04-22T08:20:01.569Z,1.97
2023-04-22T08:21:01.546Z,1.63
2023-04-22T08:22:01.538Z,1.48
2023-04-22T08:23:01.499Z,1.55
2023-04-22T08:24:01.570Z,1.66
2023-04-22T08:25:01.587Z,1.47
2023-04-22T08:26:01.490Z,1.69
2023-04-22T08:27:01.504Z,1.52
2023-04-22T08:28:01.462Z,1.91
2023-04-22T08:29:01.493Z,1.63
2023-04-22T08:30:01.536Z,1.55
2023-04-22T08:31:01.589Z,1.51
2023-04-22T08:32:01.567Z,1.72
2023-04-22T08:33:01.586Z,1.74
2023-04-22T08:34:01.578Z,1.44
2023-04-22T08:35:04.847Z,1.44
2023-04-22T08:36:01.610Z,1.70
2023-04-22T08:37:01.604Z,1.44
2023-04-22T08:38:01.545Z,1.52
2023-04-22T08:39:01.546Z,1.36
2023-04-22T08:40:01.546Z,1.41
2023-04-22T08:41:01.504Z,1.51
2023-04-22T08:42:01.535Z,1.62
2023-04-22T08:43:01.512Z,1.63
2023-04-22T08:44:01.475Z,1.30
2023-04-22T08:45:01.543Z,1.11
2023-04-22T08:46:01.446Z,1.15
2023-04-22T08:47:02.941Z,1.44
2023-04-22T08:48:01.448Z,1.58
2023-04-22T08:49:01.405Z,1.36
2023-04-22T08:50:01.398Z,0.90
2023-04-22T08:51:01.423Z,1.25
2023-04-22T08:52:01.392Z,1.42
2023-04-22T08:53:01.382Z,1.23
2023-04-22T08:54:01.355Z,1.57
2023-04-22T08:55:01.329Z,1.18
2023-04-22T08:56:01.323Z,1.44
2023-04-22T08:57:01.302Z,1.30
2023-04-22T08:58:01.297Z,1.30
2023-04-22T08:59:01.297Z,1.55
2023-04-22T09:00:01.259Z,1.40
2023-04-22T09:01:01.226Z,1.24
2023-04-22T09:02:01.252Z,1.30
2023-04-22T09:03:01.306Z,1.13
2023-04-22T09:04:01.308Z,1.50
2023-04-22T09:05:01.200Z,1.25
2023-04-22T09:06:01.196Z,1.47
2023-04-22T09:07:01.194Z,1.07
2023-04-22T09:08:01.189Z,1.22
2023-04-22T09:09:01.159Z,1.30
2023-04-22T09:10:01.162Z,1.15
2023-04-22T09:11:01.126Z,1.37
2023-04-22T09:12:01.141Z,0.99
2023-04-22T09:13:01.085Z,1.05
2023-04-22T09:14:01.089Z,1.13
2023-04-22T09:15:01.114Z,1.48
2023-04-22T09:16:01.115Z,1.17
2023-04-22T09:17:01.066Z,0.91
2023-04-22T09:18:01.026Z,0.99
2023-04-22T09:19:01.023Z,1.13
2023-04-22T09:20:00.999Z,1.16
2023-04-22T09:21:00.977Z,1.13
2023-04-22T09:22:00.992Z,1.08
2023-04-22T09:23:01.002Z,1.26
2023-04-22T09:24:01.015Z,1.09
2023-04-22T09:25:00.977Z,1.34
2023-04-22T09:26:00.975Z,1.04
2023-04-22T09:27:01.045Z,1.05
2023-04-22T09:28:00.992Z,1.07
2023-04-22T09:29:01.027Z,1.35
2023-04-22T09:30:00.995Z,0.94
2023-04-22T09:31:01.056Z,1.07
2023-04-22T09:32:01.103Z,1.33
2023-04-22T09:33:01.119Z,1.06
2023-04-22T09:34:01.109Z,1.32
2023-04-22T09:35:01.105Z,0.86
2023-04-22T09:36:01.102Z,1.04
2023-04-22T09:37:01.121Z,1.00
2023-04-22T09:38:01.178Z,1.25
2023-04-22T09:39:01.217Z,0.98
2023-04-22T09:40:01.223Z,1.19
2023-04-22T09:41:01.293Z,1.03
2023-04-22T09:42:01.273Z,1.02
2023-04-22T09:43:01.349Z,0.99
2023-04-22T09:44:01.391Z,1.12
2023-04-22T09:45:02.154Z,1.17
2023-04-22T09:46:01.504Z,0.96
2023-04-22T09:47:01.481Z,1.05
2023-04-22T09:48:01.540Z,1.29
2023-04-22T09:49:01.544Z,1.10
2023-04-22T09:50:01.626Z,1.03
2023-04-22T09:51:01.585Z,1.26
2023-04-22T09:52:01.739Z,0.93
2023-04-22T09:53:01.706Z,1.43
2023-04-22T09:54:01.744Z,1.20
2023-04-22T09:55:01.782Z,0.94
2023-04-22T09:56:01.800Z,0.84
2023-04-22T09:57:01.799Z,1.09
2023-04-22T09:58:01.864Z,1.03
2023-04-22T09:59:01.822Z,1.35
2023-04-22T10:00:01.851Z,0.99
2023-04-22T10:01:01.907Z,1.36
2023-04-22T10:02:01.896Z,1.15
2023-04-22T10:03:02.099Z,1.30
2023-04-22T10:04:02.059Z,1.21
2023-04-22T10:05:02.021Z,1.21
2023-04-22T10:06:02.029Z,1.49
2023-04-22T10:07:02.023Z,1.38
2023-04-22T10:08:02.275Z,1.00
2023-04-22T10:09:02.096Z,0.99
2023-04-22T10:10:02.192Z,1.29
2023-04-22T10:11:02.156Z,1.21
2023-04-22T10:12:02.195Z,1.43
2023-04-22T10:13:02.211Z,1.04
2023-04-22T10:14:02.242Z,1.00
2023-04-22T10:15:02.296Z,1.11
2023-04-22T10:16:02.293Z,1.20
2023-04-22T10:17:02.371Z,0.98
2023-04-22T10:18:02.350Z,1.00
2023-04-22T10:19:02.347Z,1.23
2023-04-22T10:20:02.371Z,1.21
2023-04-22T10:21:02.395Z,0.95
2023-04-22T10:22:02.426Z,1.13
2023-04-22T10:23:02.482Z,1.22
2023-04-22T10:24:02.441Z,0.98
2023-04-22T10:25:02.471Z,1.15
2023-04-22T10:26:02.503Z,1.03
2023-04-22T10:27:02.527Z,0.95
2023-04-22T10:28:02.579Z,1.26
2023-04-22T10:29:02.559Z,1.09
2023-04-22T10:30:02.591Z,1.23
2023-04-22T10:31:02.658Z,1.27
2023-04-22T10:32:02.606Z,1.14
2023-04-22T10:33:02.653Z,1.10
2023-04-22T10:34:02.640Z,1.17
2023-04-22T10:35:02.684Z,0.99
2023-04-22T10:36:02.659Z,1.33
2023-04-22T10:37:02.755Z,1.38
2023-04-22T10:38:02.739Z,1.27
2023-04-22T10:39:02.756Z,1.35
2023-04-22T10:40:02.764Z,1.15
2023-04-22T10:41:02.777Z,1.43
2023-04-22T10:42:02.817Z,1.12
2023-04-22T10:43:02.805Z,1.06
2023-04-22T10:44:02.825Z,1.00
2023-04-22T10:45:02.861Z,1.24
2023-04-22T10:46:02.883Z,1.33
2023-04-22T10:47:02.918Z,1.59
2023-04-22T10:48:02.936Z,1.23
2023-04-22T10:49:03.840Z,1.26
2023-04-22T10:50:02.989Z,1.04
2023-04-22T10:51:02.973Z,1.15
2023-04-22T10:52:02.993Z,1.21
2023-04-22T10:53:03.056Z,0.99
2023-04-22T10:54:03.022Z,1.11
2023-04-22T10:55:03.081Z,1.09
2023-04-22T10:56:03.156Z,1.22
2023-04-22T10:57:03.154Z,1.40
2023-04-22T10:58:03.166Z,1.21
2023-04-22T10:59:03.199Z,1.22
2023-04-22T11:00:03.200Z,1.10
2023-04-22T11:01:03.288Z,1.47
2023-04-22T11:02:03.286Z,1.40
2023-04-22T11:03:03.404Z,1.39
2023-04-22T11:04:03.408Z,1.07
2023-04-22T11:05:03.327Z,1.35
2023-04-22T11:06:03.346Z,1.09
2023-04-22T11:07:03.370Z,1.04
2023-04-22T11:08:03.404Z,1.12
2023-04-22T11:09:03.444Z,1.13
2023-04-22T11:10:03.458Z,1.03
2023-04-22T11:11:03.481Z,1.35
2023-04-22T11:12:03.486Z,1.12
2023-04-22T11:13:03.532Z,1.14
2023-04-22T11:14:03.544Z,1.25
2023-04-22T11:15:03.575Z,1.03
2023-04-22T11:16:03.601Z,1.18
2023-04-22T11:17:03.670Z,1.24
2023-04-22T11:18:03.608Z,1.23
2023-04-22T11:19:03.644Z,1.18
2023-04-22T11:20:03.641Z,1.05
2023-04-22T11:21:03.628Z,1.31
2023-04-22T11:22:03.668Z,1.60
2023-04-22T11:23:03.666Z,1.51
2023-04-22T11:24:03.680Z,1.28
2023-04-22T11:25:03.670Z,1.06
2023-04-22T11:26:03.735Z,1.28
2023-04-22T11:27:03.690Z,1.38
2023-04-22T11:28:03.720Z,1.59
2023-04-22T11:29:03.732Z,1.38
2023-04-22T11:30:03.775Z,1.13
2023-04-22T11:31:03.780Z,1.25
2023-04-22T11:32:03.822Z,1.20
2023-04-22T11:33:03.845Z,1.64
2023-04-22T11:34:03.798Z,1.47
2023-04-22T11:35:03.808Z,1.07
2023-04-22T11:36:03.850Z,1.48
2023-04-22T11:37:03.838Z,1.24
2023-04-22T11:38:03.830Z,1.05
2023-04-22T11:39:03.848Z,1.26
2023-04-22T11:41:03.799Z,1.26
2023-04-22T11:42:03.793Z,1.42
2023-04-22T11:43:03.749Z,1.36
2023-04-22T11:44:03.751Z,1.39
2023-04-22T11:45:03.692Z,1.24
2023-04-22T11:46:03.676Z,1.26
2023-04-22T11:47:03.626Z,1.34
2023-04-22T11:48:03.600Z,1.46
2023-04-22T11:49:03.544Z,1.13
2023-04-22T11:50:03.564Z,1.17
2023-04-22T11:51:03.500Z,1.41
2023-04-22T11:52:03.485Z,1.72
2023-04-22T11:53:03.450Z,1.46
2023-04-22T11:54:03.429Z,1.46
2023-04-22T11:55:03.366Z,1.58
2023-04-22T11:56:03.363Z,1.55
2023-04-22T11:57:03.321Z,1.10
2023-04-22T11:58:03.303Z,1.40
2023-04-22T11:59:03.305Z,1.29
2023-04-22T12:00:03.245Z,1.12
2023-04-22T12:01:03.221Z,1.50
2023-04-22T12:02:03.254Z,1.04
2023-04-22T12:03:03.312Z,1.47
2023-04-22T12:04:03.190Z,1.39
2023-04-22T12:05:03.186Z,1.70
2023-04-22T12:06:03.068Z,1.29
2023-04-22T12:07:03.059Z,1.40
2023-04-22T12:08:03.033Z,1.35
2023-04-22T12:09:02.993Z,1.50
2023-04-22T12:10:02.949Z,1.11
2023-04-22T12:11:02.920Z,1.33
2023-04-22T12:12:02.908Z,1.70
2023-04-22T12:13:02.859Z,1.34
2023-04-22T12:14:02.832Z,1.37
2023-04-22T12:15:02.846Z,1.50
2023-04-22T12:16:02.809Z,1.58
2023-04-22T12:17:02.825Z,1.51
2023-04-22T12:18:02.742Z,1.53
2023-04-22T12:19:02.694Z,1.75
2023-04-22T12:20:02.664Z,1.45
2023-04-22T12:21:02.631Z,1.21
2023-04-22T12:22:02.622Z,1.52
2023-04-22T12:23:02.586Z,1.24
2023-04-22T12:24:02.551Z,1.54
2023-04-22T12:25:02.526Z,1.46
2023-04-22T12:26:02.499Z,1.36
2023-04-22T12:27:02.430Z,1.49
2023-04-22T12:28:02.462Z,1.24
2023-04-22T12:29:02.389Z,1.25
2023-04-22T12:30:02.386Z,1.28
2023-04-22T12:31:02.370Z,1.86
2023-04-22T12:32:02.318Z,1.40
2023-04-22T12:33:02.309Z,1.75
2023-04-22T12:34:02.300Z,1.58
2023-04-22T12:35:02.227Z,1.62
2023-04-22T12:36:02.215Z,1.40
2023-04-22T12:37:02.183Z,1.35
2023-04-22T12:38:02.136Z,1.36
2023-04-22T12:39:02.110Z,1.72
2023-04-22T12:40:02.075Z,1.56
2023-04-22T12:41:02.067Z,1.42
2023-04-22T12:42:01.991Z,1.35
2023-04-22T12:43:02.005Z,1.36
2023-04-22T12:44:01.989Z,1.40
2023-04-22T12:45:01.909Z,1.30
2023-04-22T12:46:01.909Z,1.96
2023-04-22T12:47:01.860Z,1.38
2023-04-22T12:48:01.853Z,1.48
2023-04-22T12:49:01.813Z,1.45
2023-04-22T12:50:01.790Z,1.13
2023-04-22T12:51:01.795Z,1.16
2023-04-22T12:52:01.745Z,1.74
2023-04-22T12:53:01.684Z,1.66
2023-04-22T12:54:01.691Z,1.81
2023-04-22T12:55:01.649Z,1.34
2023-04-22T12:56:01.655Z,1.51
2023-04-22T12:57:01.624Z,1.68
2023-04-22T12:58:01.571Z,1.63
2023-04-22T12:59:01.564Z,1.44
2023-04-22T13:00:01.526Z,1.42
2023-04-22T13:01:01.523Z,1.50
2023-04-22T13:02:01.590Z,1.75
2023-04-22T13:03:01.674Z,1.50
2023-04-22T13:04:01.932Z,1.87
2023-04-22T13:05:01.536Z,1.68
2023-04-22T13:06:01.524Z,1.65
2023-04-22T13:07:01.508Z,1.48
2023-04-22T13:08:07.241Z,1.66
2023-04-22T13:09:02.489Z,1.51
2023-04-22T13:10:01.458Z,1.63
2023-04-22T13:11:01.440Z,1.87
2023-04-22T13:12:01.404Z,1.54
2023-04-22T13:13:15.955Z,1.88
2023-04-22T13:14:02.345Z,1.50
2023-04-22T13:15:01.292Z,1.76
2023-04-22T13:16:01.300Z,1.67
2023-04-22T13:17:01.258Z,1.60
2023-04-22T13:18:01.242Z,1.72
2023-04-22T13:19:01.183Z,1.62
2023-04-22T13:20:01.171Z,1.59